Sunday, August 19, 2018, 5:52 PM GMT
Back to Local

CWWE, Western Head, N. S.

Location: , , Canada Lat: 43.983
Local Time: 5:52 PM GMT (17:52 GMT) Lon: -64.667
Time Zone: GMT Elev: 29 ft

Show me the last for .
Show Coded

Time T Td Feel RH Dir Speed Gust Alt SLP Vis Weather Sky Remarks
2018-08-19 17:00 66 61 - 85 40° 7 - - 30.01 0 None
2018-08-19 16:00 63 60 - 89 50° 7 - - 30.00 0 None
2018-08-19 15:00 65 62 - 90 40° 7 - - 29.99 0 None
2018-08-19 14:00 63 62 - 96 40° 6 - - 29.96 0 None
2018-08-19 13:00 62 62 - 98 20° 5 - - 29.93 0 None
2018-08-19 12:00 62 62 - 98 20° 3 - - 29.92 0 None
2018-08-19 11:00 62 62 - 100 10° 5 - - 29.89 0 None
2018-08-19 10:00 62 62 - 100 10° 5 - - 29.87 0 None
2018-08-19 09:00 62 62 - 100 360° 5 - - 29.85 0 None
2018-08-19 08:00 62 62 - 100 360° 7 - - 29.82 0 None
2018-08-19 07:00 63 - - 0 360° 6 - - 29.82 0 None
2018-08-19 06:00 63 - - 0 350° 6 - - 29.81 0 None
2018-08-19 05:00 63 - - 0 350° 7 - - 29.80 0 None
2018-08-19 04:00 64 - - 0 350° 5 - - 29.79 0 None
2018-08-19 03:00 64 - - 0 350° 7 - - 29.79 0 None
2018-08-19 02:00 65 - - 0 350° 7 - - 29.78 0 1-hr Precip Total: 0.02"
2018-08-19 01:00 66 66 - 100 330° 5 - - 29.76 0 1-hr Precip Total: 0.01"
2018-08-19 00:00 59 59 - 100 240° 5 - - 29.75 0 None
2018-08-18 23:00 61 61 - 100 250° 6 - - 29.73 0 None
2018-08-18 22:00 59 59 - 100 240° 6 - - 29.73 0 None
2018-08-18 21:00 58 58 - 100 210° 9 - - 29.74 0 None
2018-08-18 20:00 60 60 - 100 200° 13 - - 29.74 0 None
2018-08-18 19:00 61 61 - 100 200° 15 - - 29.75 0 1-hr Precip Total: 0.05"
2018-08-18 18:00 61 61 - 100 200° 14 - - 29.76 0 1-hr Precip Total: 0.04"

Support USWX by starting your Amazon purchase here.